Terminal Aerodrome Forecast
Issued by NWS Wichita, KS

Home | Current Version | Previous Version | Graphics & Text | Print | Product List | Glossary On
Versions: 1 2 3 4 5 6 7 8 9 10 11 12 13
379
FTUS43 KICT 301123
TAFICT
TAF
KICT 301123Z 3012/0112 29011KT P6SM FEW080
     FM301600 30016G24KT P6SM FEW080
     FM010000 28005KT P6SM SKC=

USA.gov is the U.S. government's official web portal to all federal, state and local government web resources and services.